Time;durP1;ratioP1;P1;durP2;ratioP2;P2;SDS_P1;SDS_P2;PMS_P1;PMS_P2;Temp;Humidity;BMP_temperature;BMP_pressure;BME280_temperature;BME280_humidity;BME280_pressure;Samples;Min_cycle;Max_cycle;Signal;HPM_P1;HPM_P2
2022/01/19 00:01:27;;;;;;;2.27;1.50;;;6.80;99.90;;;6.93;73.38;102354.41;4999468;28;20974;-65
2022/01/19 00:03:54;;;;;;;1.40;1.40;;;6.80;99.90;;;6.93;73.66;102350.97;5016894;28;21055;-62
2022/01/19 00:06:21;;;;;;;1.33;1.33;;;6.80;99.90;;;6.98;72.76;102351.69;5033010;28;20692;-62
2022/01/19 00:08:49;;;;;;;1.77;1.67;;;6.80;99.90;;;6.91;73.30;102345.84;5031792;28;21000;-63
2022/01/19 00:11:16;;;;;;;1.40;1.30;;;6.80;99.90;;;6.92;73.66;102344.09;5032748;28;20620;-62
2022/01/19 00:13:43;;;;;;;1.57;1.47;;;6.80;99.90;;;6.98;73.10;102333.53;5031709;28;20699;-63
2022/01/19 00:16:11;;;;;;;2.30;2.20;;;6.80;99.90;;;6.96;72.57;102319.75;5029996;28;20640;-63
2022/01/19 00:18:38;;;;;;;1.70;1.60;;;6.80;99.90;;;6.99;72.97;102307.50;5033344;28;20713;-65
2022/01/19 00:21:05;;;;;;;2.33;2.23;;;6.90;99.90;;;7.02;73.12;102302.25;5032664;28;20613;-63
2022/01/19 00:23:32;;;;;;;2.27;2.13;;;6.90;99.90;;;7.01;73.88;102290.16;5015621;28;20611;-64
2022/01/19 00:25:59;;;;;;;2.00;1.90;;;6.90;99.90;;;6.99;73.59;102291.09;5028331;28;20664;-63
2022/01/19 00:28:27;;;;;;;1.50;1.40;;;6.80;99.90;;;7.03;72.98;102295.28;5031552;28;20636;-63
2022/01/19 00:30:54;;;;;;;1.77;1.67;;;6.90;99.90;;;6.97;73.32;102282.50;5031748;28;20607;-63
2022/01/19 00:33:21;;;;;;;1.57;1.47;;;6.80;99.90;;;6.95;73.56;102289.50;5031653;28;20628;-63
2022/01/19 00:35:50;;;;;;;3.33;2.27;;;6.80;99.90;;;6.97;73.46;102292.88;5015007;28;20623;-63
2022/01/19 00:38:17;;;;;;;2.63;2.13;;;6.80;99.90;;;7.06;72.75;102305.59;5031171;28;20660;-65
2022/01/19 00:40:46;;;;;;;1.87;1.77;;;6.90;99.90;;;7.05;72.02;102303.88;5016089;28;20992;-64
2022/01/19 00:43:14;;;;;;;1.67;1.50;;;6.90;99.90;;;7.04;71.89;102312.56;5032475;28;20625;-62
2022/01/19 00:45:43;;;;;;;2.30;2.20;;;6.90;99.90;;;7.02;72.89;102312.63;5030875;28;20676;-63
2022/01/19 00:48:26;;;;;;;1.27;1.17;;;6.90;99.90;;;6.98;72.28;102299.78;5031885;28;20644;-65
2022/01/19 00:50:53;;;;;;;2.10;2.00;;;6.80;99.90;;;7.00;72.99;102306.63;5031886;28;21262;-65
2022/01/19 00:53:20;;;;;;;2.20;1.93;;;6.80;99.90;;;6.95;73.02;102311.09;5025153;28;20658;-65
2022/01/19 00:55:47;;;;;;;3.73;1.93;;;6.80;99.90;;;6.94;73.83;102305.97;5025808;28;20747;-64
2022/01/19 00:58:14;;;;;;;2.47;1.77;;;6.80;99.90;;;6.92;73.18;102302.56;5013506;28;20993;-66
2022/01/19 01:00:41;;;;;;;2.43;1.83;;;6.80;99.90;;;6.93;73.07;102304.25;5014518;28;20627;-66
2022/01/19 01:03:09;;;;;;;2.73;2.53;;;6.80;99.90;;;7.01;72.80;102289.28;5031015;28;20723;-66
2022/01/19 01:05:36;;;;;;;0.90;0.90;;;6.80;99.90;;;6.82;73.60;102289.00;5030517;28;20644;-63
2022/01/19 01:08:04;;;;;;;2.20;0.97;;;6.70;99.90;;;6.66;73.55;102300.75;5013476;28;20641;-66
2022/01/19 01:10:40;;;;;;;3.22;1.80;;;6.60;99.90;;;6.67;72.80;102294.66;5017340;28;20628;-66
2022/01/19 01:13:21;;;;;;;1.33;1.05;;;6.50;99.90;;;6.68;73.62;102285.13;5030907;28;20296;-65
2022/01/19 01:18:32;;;;;;;3.08;2.13;;;6.40;99.90;;;6.59;73.49;102285.41;5030821;28;20279;-65
2022/01/19 01:21:00;;;;;;;1.13;1.10;;;6.40;99.90;;;6.53;73.27;102273.47;5013283;28;20216;-66
2022/01/19 01:23:32;;;;;;;2.38;1.35;;;6.40;99.90;;;6.49;74.56;102261.50;5031870;28;20678;-63
2022/01/19 01:25:59;;;;;;;1.95;1.60;;;6.30;99.90;;;6.55;74.33;102265.63;5030814;28;20225;-64
2022/01/19 01:28:26;;;;;;;0.90;0.77;;;6.30;99.90;;;6.40;74.10;102248.78;5030699;28;20222;-63
2022/01/19 01:30:54;;;;;;;1.23;1.13;;;6.30;99.90;;;6.32;73.42;102229.16;5030903;28;20209;-66
2022/01/19 01:33:21;;;;;;;1.98;1.73;;;6.20;99.90;;;6.26;73.40;102231.03;5030739;28;20206;-63
2022/01/19 01:35:48;;;;;;;1.10;0.70;;;6.20;99.90;;;6.23;73.38;102232.88;5032202;28;20202;-65
2022/01/19 01:38:15;;;;;;;1.67;1.15;;;6.10;99.90;;;6.19;73.60;102234.72;5025815;28;20657;-64
2022/01/19 01:41:02;;;;;;;1.05;0.85;;;6.10;99.90;;;6.11;73.78;102241.81;4995649;28;20210;-62
2022/01/19 01:43:29;;;;;;;1.98;1.88;;;6.00;99.90;;;6.24;72.89;102253.56;5001818;28;20234;-65
2022/01/19 01:46:02;;;;;;;1.15;0.98;;;6.10;99.90;;;6.14;72.15;102262.50;5031520;28;20212;-65
2022/01/19 01:48:30;;;;;;;1.33;1.08;;;6.00;99.90;;;6.28;72.58;102268.13;5029943;28;20664;-66
2022/01/19 01:53:42;;;;;;;1.48;1.38;;;6.10;99.90;;;6.20;72.54;102261.47;5029424;28;20194;-64
2022/01/19 01:56:16;;;;;;;1.15;1.15;;;6.10;99.90;;;6.11;72.95;102257.38;5031965;28;20214;-63
2022/01/19 01:58:47;;;;;;;0.73;0.73;;;6.00;99.90;;;6.18;73.06;102253.72;5029895;28;20296;-63
2022/01/19 02:01:16;;;;;;;1.08;0.80;;;6.00;99.90;;;6.08;73.26;102247.13;5026149;28;20221;-63
2022/01/19 02:03:45;;;;;;;1.20;1.10;;;6.00;99.90;;;6.01;73.25;102245.56;5009923;28;20203;-63
2022/01/19 02:25:56;;;;;;;0.93;0.70;;;5.80;99.90;;;5.82;71.63;102174.41;5014666;28;20210;-64
2022/01/19 02:42:42;;;;;;;1.85;1.75;;;5.70;99.90;;;6.02;70.35;102133.28;5011537;28;20209;-62
2022/01/19 02:50:30;;;;;;;0.30;0.30;;;5.90;99.90;;;6.00;71.26;102126.44;5030516;28;20688;-63
2022/01/19 02:52:57;;;;;;;1.95;1.80;;;5.90;99.90;;;6.06;71.21;102129.69;5034436;28;20233;-63
2022/01/19 02:55:24;;;;;;;3.30;1.80;;;5.90;99.90;;;6.04;70.73;102113.34;5032363;28;20222;-63
2022/01/19 02:57:51;;;;;;;0.60;0.60;;;5.90;99.90;;;6.14;70.53;102108.72;5016568;28;20341;-64
2022/01/19 03:09:09;;;;;;;2.05;1.25;;;5.70;99.90;;;5.68;71.78;102079.88;5033352;28;20232;-65
2022/01/19 03:11:29;;;;;;;1.70;1.60;;;5.60;99.90;;;5.43;72.13;102069.38;5026821;28;20293;-65
2022/01/19 03:13:56;;;;;;;3.42;2.10;;;5.40;99.90;;;5.37;72.71;102074.69;5033508;28;20237;-64
2022/01/19 03:16:23;;;;;;;2.08;2.00;;;5.20;99.90;;;5.41;73.05;102077.16;5031707;28;20213;-66
2022/01/19 03:18:50;;;;;;;1.90;1.80;;;5.20;99.90;;;5.37;72.89;102057.44;5031848;28;20674;-62
2022/01/19 03:21:18;;;;;;;1.67;1.58;;;5.20;99.90;;;5.39;73.30;102055.63;5013410;28;20298;-66
2022/01/19 03:23:45;;;;;;;2.70;2.25;;;5.10;99.90;;;5.39;72.95;102037.53;5010367;28;20569;-63
2022/01/19 03:26:12;;;;;;;2.25;2.15;;;5.20;99.90;;;5.35;72.66;102035.06;5028549;28;20241;-64
2022/01/19 03:28:39;;;;;;;1.65;1.33;;;5.10;99.90;;;5.20;72.89;102032.91;5033287;28;20205;-64
2022/01/19 03:31:07;;;;;;;1.75;1.60;;;5.10;99.90;;;5.17;73.26;102023.50;5033517;28;20284;-65
2022/01/19 03:33:34;;;;;;;4.30;1.88;;;5.00;99.90;;;5.22;72.70;102020.75;5033651;28;20740;-65
2022/01/19 03:36:01;;;;;;;3.35;2.20;;;5.00;99.90;;;5.19;72.79;102018.28;5030134;28;20248;-64
2022/01/19 03:38:28;;;;;;;2.80;0.82;;;4.90;99.90;;;5.08;73.21;102008.22;5014541;28;20247;-65
2022/01/19 03:40:55;;;;;;;3.63;2.83;;;4.90;99.90;;;5.04;73.96;102003.19;5031803;28;20201;-63
2022/01/19 03:43:22;;;;;;;1.10;1.00;;;4.80;99.90;;;5.12;73.32;102006.41;5031957;28;20581;-66
2022/01/19 03:45:52;;;;;;;2.53;2.30;;;4.90;99.90;;;5.08;73.40;101997.03;5033174;28;20648;-63
2022/01/19 03:51:07;;;;;;;3.10;1.90;;;4.90;99.90;;;5.02;73.77;101985.13;5031768;28;20230;-67
2022/01/19 03:53:34;;;;;;;2.28;1.40;;;4.80;99.90;;;4.87;74.59;101979.50;5031580;28;20198;-65
2022/01/19 03:56:02;;;;;;;2.95;1.85;;;4.70;99.90;;;4.88;74.37;101978.59;5031536;28;20298;-64
2022/01/19 03:58:29;;;;;;;4.43;2.13;;;4.80;99.90;;;4.82;75.01;101971.88;5032927;28;20304;-64
2022/01/19 04:00:58;;;;;;;1.33;1.23;;;4.70;99.90;;;4.76;75.25;101966.00;5015165;28;20190;-67
2022/01/19 04:03:49;;;;;;;7.13;2.80;;;4.60;99.90;;;4.83;74.78;101954.63;5031015;28;20198;-64
2022/01/19 04:06:17;;;;;;;3.58;2.50;;;4.60;99.90;;;4.87;74.87;101946.75;5017756;28;20206;-65
2022/01/19 04:08:44;;;;;;;3.33;3.00;;;4.60;99.90;;;4.85;74.80;101945.94;4999128;28;20277;-66
2022/01/19 04:11:14;;;;;;;1.33;1.23;;;4.60;99.90;;;4.86;74.47;101941.59;5032148;28;20206;-64
2022/01/19 04:13:58;;;;;;;2.33;2.17;;;4.70;99.90;;;4.89;74.36;101932.03;5032194;28;20194;-65
2022/01/19 04:16:25;;;;;;;4.45;2.95;;;4.70;99.90;;;4.80;74.73;101929.69;5031031;28;20202;-64
2022/01/19 04:19:02;;;;;;;2.03;1.90;;;4.60;99.90;;;4.69;75.74;101935.16;5030879;28;20202;-66
2022/01/19 04:21:29;;;;;;;4.35;3.25;;;4.60;99.90;;;4.76;75.28;101942.75;5029545;28;20198;-65
2022/01/19 04:23:56;;;;;;;3.47;2.50;;;4.60;99.90;;;4.71;75.71;101943.72;5030621;28;20619;-62
2022/01/19 04:26:23;;;;;;;2.60;2.40;;;4.50;99.90;;;4.72;75.35;101945.44;5030860;28;20280;-66
2022/01/19 04:28:50;;;;;;;3.15;2.83;;;4.50;99.90;;;4.73;75.27;101948.84;5030302;28;20191;-64
2022/01/19 04:31:17;;;;;;;4.53;3.42;;;4.50;99.90;;;4.69;75.79;101949.81;5031896;28;20286;-66
2022/01/19 04:33:45;;;;;;;3.25;2.90;;;4.50;99.90;;;4.63;76.23;101940.50;5032434;28;20206;-65
2022/01/19 04:36:30;;;;;;;4.53;3.30;;;4.40;99.90;;;4.64;76.31;101938.75;5031275;28;20279;-65
2022/01/19 05:06:52;;;;;;;5.30;3.53;;;4.20;99.90;;;4.37;78.00;101927.41;5010248;28;20602;-67
2022/01/19 05:09:58;;;;;;;4.43;3.40;;;4.20;99.90;;;4.35;78.01;101924.00;5002852;28;20198;-66
2022/01/19 05:15:20;;;;;;;6.07;3.53;;;4.20;99.90;;;4.37;78.20;101922.22;5029267;28;20209;-67
2022/01/19 05:17:50;;;;;;;5.95;4.18;;;4.20;99.90;;;4.30;78.18;101910.34;5038974;22;20651;-68
2022/01/19 05:20:16;;;;;;;6.05;3.92;;;4.10;99.90;;;4.30;78.35;101907.75;5009962;28;20213;-68
2022/01/19 05:22:43;;;;;;;9.18;4.60;;;4.10;99.90;;;4.32;78.15;101918.09;5011459;28;20662;-67
2022/01/19 05:25:10;;;;;;;6.95;3.60;;;4.20;99.90;;;4.27;78.31;101925.09;5011279;28;20207;-68
2022/01/19 05:27:37;;;;;;;3.63;3.30;;;4.10;99.90;;;4.32;78.12;101929.25;4990395;28;20231;-68
2022/01/19 05:30:05;;;;;;;6.78;3.40;;;4.10;99.90;;;4.27;78.64;101936.28;4992041;28;20199;-68
2022/01/19 05:32:32;;;;;;;5.05;3.45;;;4.10;99.90;;;4.23;78.54;101933.81;4992668;28;20694;-67
2022/01/19 05:34:59;;;;;;;4.50;3.35;;;4.10;99.90;;;4.17;79.38;101927.06;4991706;28;20286;-68
2022/01/19 05:37:26;;;;;;;3.65;3.15;;;4.00;99.90;;;4.19;79.33;101930.47;4991720;28;20223;-68
2022/01/19 05:39:52;;;;;;;4.88;3.05;;;4.00;99.90;;;4.17;79.05;101923.63;4989652;28;20211;-68
2022/01/19 05:42:19;;;;;;;9.40;3.42;;;4.00;99.90;;;4.16;78.91;101929.69;4992053;28;20258;-68
2022/01/19 05:44:47;;;;;;;4.43;3.42;;;4.00;99.90;;;4.04;79.58;101927.41;4991038;28;20218;-68
2022/01/19 05:47:17;;;;;;;4.25;3.85;;;3.80;99.90;;;4.04;79.76;101920.50;4989956;28;20226;-67
2022/01/19 05:49:44;;;;;;;4.43;3.55;;;3.80;99.90;;;4.00;79.62;101916.31;4991054;28;20298;-68
2022/01/19 05:52:11;;;;;;;3.60;3.25;;;3.90;99.90;;;4.00;79.45;101905.13;4990893;28;20590;-69
2022/01/19 05:54:39;;;;;;;6.50;3.88;;;3.80;99.90;;;4.05;79.54;101908.41;4989857;28;20207;-68
2022/01/19 05:57:06;;;;;;;4.50;3.45;;;3.90;99.90;;;4.00;79.85;101905.13;4990922;28;20223;-67
2022/01/19 05:59:34;;;;;;;6.70;4.45;;;3.90;99.90;;;3.95;79.58;101900.06;4991578;28;20233;-68
2022/01/19 06:02:02;;;;;;;3.90;3.25;;;3.90;99.90;;;4.01;79.44;101897.34;4984046;28;20210;-68
2022/01/19 06:04:29;;;;;;;8.43;4.40;;;3.90;99.90;;;3.93;79.91;101904.44;4991912;28;20203;-68
2022/01/19 06:06:56;;;;;;;4.63;3.08;;;3.90;99.90;;;3.93;79.79;101904.44;4983330;28;20687;-68
2022/01/19 06:12:05;;;;;;;5.47;3.88;;;3.80;99.90;;;3.91;79.85;101901.03;4991348;28;20213;-69
2022/01/19 06:14:36;;;;;;;4.50;3.47;;;3.80;99.90;;;3.86;80.52;101895.97;4989673;28;20238;-70
2022/01/19 06:17:05;;;;;;;6.50;3.53;;;3.70;99.90;;;3.84;79.86;101889.16;4989826;28;20250;-69
2022/01/19 06:19:33;;;;;;;5.55;4.15;;;3.70;99.90;;;3.77;80.92;101888.44;4973676;28;20651;-67
2022/01/19 06:22:00;;;;;;;7.28;4.55;;;3.70;99.90;;;3.76;80.38;101888.50;4990933;28;20207;-68
2022/01/19 06:24:27;;;;;;;4.13;3.45;;;3.60;99.90;;;3.75;80.97;101877.31;4984451;28;20206;-68
2022/01/19 06:26:55;;;;;;;5.45;4.10;;;3.60;99.90;;;3.71;81.02;101875.69;4985986;28;20211;-69
2022/01/19 06:29:22;;;;;;;5.97;4.00;;;3.60;99.90;;;3.65;81.19;101867.25;4968696;28;20210;-68
2022/01/19 06:31:50;;;;;;;4.45;3.80;;;3.50;99.90;;;3.67;81.15;101875.81;4991199;28;20195;-68
2022/01/19 06:34:17;;;;;;;4.03;3.45;;;3.50;99.90;;;3.73;80.72;101876.50;4990930;28;20246;-68
2022/01/19 06:36:44;;;;;;;6.38;4.30;;;3.60;99.90;;;3.67;81.54;101871.50;4991611;28;20206;-68
2022/01/19 06:39:11;;;;;;;6.40;3.72;;;3.50;99.90;;;3.71;81.19;101874.84;4989208;28;20580;-68
2022/01/19 06:41:38;;;;;;;5.97;4.03;;;3.50;99.90;;;3.58;81.68;101869.13;4998910;28;20638;-68
2022/01/19 06:44:05;;;;;;;5.70;4.05;;;3.40;99.90;;;3.57;81.87;101869.16;4998139;28;20249;-68
2022/01/19 06:46:32;;;;;;;4.65;4.00;;;3.40;99.90;;;3.61;82.07;101868.19;4989631;28;20632;-68
2022/01/19 06:48:59;;;;;;;5.07;4.00;;;3.50;99.90;;;3.60;81.68;101863.94;4989424;28;20258;-69
2022/01/19 06:51:26;;;;;;;5.60;3.33;;;3.40;99.90;;;3.59;81.83;101864.81;4990797;28;20203;-68
2022/01/19 06:53:53;;;;;;;3.45;2.33;;;3.40;99.90;;;3.42;81.85;101861.78;4994885;28;20859;-70
2022/01/19 06:56:20;;;;;;;6.20;3.60;;;3.40;99.90;;;3.55;81.21;101863.19;4991440;28;20203;-68
2022/01/19 06:58:48;;;;;;;1.67;1.58;;;3.40;99.90;;;3.53;81.40;101854.66;4990592;28;20609;-68
2022/01/19 07:01:15;;;;;;;3.10;2.05;;;3.40;99.90;;;3.42;82.09;101854.03;4990749;28;20213;-68
2022/01/19 07:03:42;;;;;;;5.03;3.08;;;3.40;99.90;;;3.35;82.12;101842.16;4989275;28;20231;-69
2022/01/19 07:06:11;;;;;;;4.38;2.75;;;3.30;99.90;;;3.29;82.65;101837.16;4990368;28;20214;-68
2022/01/19 07:08:41;;;;;;;6.72;3.55;;;3.20;99.90;;;3.28;82.96;101833.69;4989539;28;20227;-69
2022/01/19 07:11:09;;;;;;;3.38;3.08;;;3.20;99.90;;;3.26;82.33;101826.91;4973532;28;20199;-68
2022/01/19 07:13:35;;;;;;;3.22;2.90;;;3.20;99.90;;;3.17;83.20;101833.94;4988847;28;20210;-69
2022/01/19 07:16:03;;;;;;;5.18;4.10;;;3.10;99.90;;;3.20;82.85;101839.91;4989774;28;20207;-69
2022/01/19 07:18:29;;;;;;;10.88;5.35;;;3.10;99.90;;;3.19;83.48;101835.66;4987725;28;20266;-68
2022/01/19 07:20:56;;;;;;;8.35;4.85;;;3.10;99.90;;;3.17;83.70;101835.72;4988807;28;20203;-68
2022/01/19 07:23:23;;;;;;;9.60;5.53;;;3.10;99.90;;;3.23;83.90;101832.97;4988978;28;20683;-68
2022/01/19 07:25:50;;;;;;;7.07;5.18;;;3.10;99.90;;;3.30;83.22;101833.69;4989317;28;20203;-68
2022/01/19 07:28:17;;;;;;;3.75;2.95;;;3.20;99.90;;;3.34;83.24;101830.16;4991193;28;20219;-68
2022/01/19 07:30:44;;;;;;;3.50;2.85;;;3.30;99.90;;;3.36;82.30;101829.25;4989772;28;20675;-68
2022/01/19 07:33:12;;;;;;;4.85;2.83;;;3.30;99.90;;;3.29;82.76;101826.81;4973027;28;20199;-67
2022/01/19 07:35:39;;;;;;;4.50;2.83;;;3.30;99.90;;;3.32;82.34;101837.94;4989882;28;20204;-67
2022/01/19 07:38:06;;;;;;;4.55;2.78;;;3.20;99.90;;;3.32;82.40;101831.94;4989529;28;20741;-69
2022/01/19 07:40:35;;;;;;;2.25;1.85;;;3.30;99.90;;;3.43;82.08;101829.94;4992677;28;20229;-68
2022/01/19 07:43:02;;;;;;;2.30;2.08;;;3.40;99.90;;;3.33;82.68;101824.13;4992290;28;20215;-70
2022/01/19 07:45:29;;;;;;;2.15;1.95;;;3.30;99.90;;;3.33;82.93;101834.47;4976989;28;20230;-67
2022/01/19 07:47:57;;;;;;;3.78;2.13;;;3.30;99.90;;;3.35;82.55;101831.84;4974745;28;20238;-69
2022/01/19 07:50:24;;;;;;;3.10;2.47;;;3.20;99.90;;;3.41;82.40;101831.72;4973841;28;20203;-68
2022/01/19 07:52:51;;;;;;;3.22;2.65;;;3.30;99.90;;;3.25;83.39;101836.38;4977324;28;20286;-68
2022/01/19 07:55:18;;;;;;;5.47;2.47;;;3.20;99.90;;;3.31;82.83;101832.78;4993640;28;20234;-69
2022/01/19 07:57:49;;;;;;;5.50;2.47;;;3.30;99.90;;;3.35;82.96;101834.41;4992521;28;20524;-68
2022/01/19 08:00:16;;;;;;;2.38;2.17;;;3.30;99.90;;;3.63;82.29;101828.56;4992037;28;20199;-68
2022/01/19 08:02:44;;;;;;;4.07;3.00;;;3.60;99.90;;;4.15;80.01;101828.09;4977035;28;20217;-68
2022/01/19 08:05:13;;;;;;;4.15;2.05;;;4.10;99.90;;;4.61;77.73;101830.25;4993355;28;20211;-69
2022/01/19 08:07:40;;;;;;;7.28;4.13;;;4.70;99.90;;;5.17;74.19;101828.59;4993563;28;20227;-68
2022/01/19 08:10:10;;;;;;;7.35;3.35;;;5.40;99.90;;;5.20;73.29;101831.06;5006534;28;20210;-70
2022/01/19 08:12:37;;;;;;;0.52;0.45;;;5.80;99.90;;;5.84;71.62;101833.31;4976368;28;20204;-68
2022/01/19 08:15:06;;;;;;;3.42;2.70;;;6.20;99.90;;;6.27;69.96;101830.09;4990613;28;20200;-68
2022/01/19 08:17:33;;;;;;;2.42;2.28;;;6.80;99.90;;;6.61;68.54;101829.75;4974861;28;20231;-68
2022/01/19 08:20:00;;;;;;;0.77;0.77;;;7.10;99.90;;;7.18;65.25;101824.09;4993893;28;20206;-68
2022/01/19 08:22:27;;;;;;;3.80;3.17;;;7.60;99.90;;;7.56;64.69;101826.84;4991035;28;20738;-68
2022/01/19 08:24:53;;;;;;;2.03;1.90;;;8.10;99.90;;;7.50;63.28;101827.13;4993646;28;20717;-68
2022/01/19 08:27:20;;;;;;;4.47;3.73;;;8.80;99.90;;;8.48;61.07;101819.47;4992445;28;20638;-69
2022/01/19 08:29:47;;;;;;;3.00;2.37;;;9.20;99.90;;;9.08;59.07;101818.44;4993776;28;21038;-69
2022/01/19 08:32:14;;;;;;;8.97;4.77;;;9.90;99.90;;;9.71;57.61;101817.13;4992027;28;20650;-68
2022/01/19 08:34:58;;;;;;;9.50;5.73;;;10.70;99.90;;;10.90;54.64;101814.28;4967595;28;20661;-68
2022/01/19 08:37:25;;;;;;;9.37;6.27;;;12.00;97.70;;;12.69;49.45;101814.25;4971436;28;20639;-68
2022/01/19 08:39:53;;;;;;;7.77;5.47;;;14.10;91.20;;;14.16;45.82;101816.75;4991322;28;20652;-68
2022/01/19 08:42:20;;;;;;;5.70;4.60;;;15.90;79.10;;;14.54;43.51;101807.13;4993957;28;20652;-69
2022/01/19 08:44:53;;;;;;;8.00;4.97;;;16.60;70.90;;;15.49;42.03;101813.34;4978027;28;20638;-68
2022/01/19 08:47:21;;;;;;;7.27;6.03;;;17.40;66.40;;;16.33;40.31;101814.88;4991797;28;21269;-70
2022/01/19 08:49:52;;;;;;;8.87;6.17;;;18.20;62.40;;;15.33;41.61;101819.81;4988716;28;21234;-69
2022/01/19 08:52:20;;;;;;;12.97;6.67;;;17.50;62.30;;;16.61;38.60;101817.09;4980958;28;20619;-68
2022/01/19 08:54:47;;;;;;;9.27;5.97;;;18.60;59.00;;;17.20;37.79;101818.44;4982421;28;20631;-69
2022/01/19 08:57:15;;;;;;;11.40;6.30;;;19.20;57.70;;;17.75;36.46;101812.13;4989865;28;20658;-69
2022/01/19 08:59:42;;;;;;;8.10;6.60;;;20.00;55.00;;;17.39;36.75;101810.69;4975483;28;20685;-69
2022/01/19 09:02:10;;;;;;;9.87;6.77;;;20.10;53.30;;;17.08;36.78;101801.78;4992033;28;20638;-69
2022/01/19 09:04:38;;;;;;;9.40;7.27;;;19.60;53.60;;;17.01;37.22;101810.31;4993182;28;20622;-69
2022/01/19 09:07:04;;;;;;;10.30;6.50;;;19.60;53.30;;;17.60;35.30;101805.47;4984936;28;20661;-69
2022/01/19 09:09:32;;;;;;;8.13;5.30;;;20.60;51.40;;;18.66;34.82;101809.56;4985134;28;20662;-69
2022/01/19 09:11:59;;;;;;;11.83;6.33;;;21.00;50.60;;;18.94;33.87;101803.53;4992197;28;20728;-69
2022/01/19 09:14:26;;;;;;;11.07;6.90;;;21.00;49.90;;;18.90;33.82;101797.69;4991353;28;20645;-71
2022/01/19 09:16:53;;;;;;;9.47;5.97;;;21.20;49.30;;;18.26;33.89;101791.88;4991454;28;20614;-69
2022/01/19 09:19:20;;;;;;;7.80;5.50;;;20.80;49.40;;;17.52;35.28;101797.34;4990943;28;20635;-69
2022/01/19 09:21:49;;;;;;;8.13;6.30;;;20.20;49.60;;;17.30;35.57;101789.47;4991082;28;20722;-70
2022/01/19 09:24:17;;;;;;;11.13;7.30;;;19.70;50.40;;;14.52;39.93;101789.78;4979670;28;20638;-69
2022/01/19 09:26:44;;;;;;;10.63;6.10;;;16.90;54.30;;;12.63;44.58;101780.59;4973410;28;20895;-71
2022/01/19 09:29:13;;;;;;;10.50;6.43;;;14.20;60.20;;;11.11;49.94;101775.69;4973968;28;20658;-69
2022/01/19 09:31:43;;;;;;;15.40;6.47;;;12.20;67.70;;;10.14;52.51;101762.72;4972771;28;20614;-70
2022/01/19 09:34:15;;;;;;;8.20;5.30;;;11.00;77.70;;;9.43;55.08;101767.28;4992002;28;21353;-68
2022/01/19 09:36:46;;;;;;;9.43;5.47;;;9.90;89.90;;;8.40;57.84;101769.56;4971494;28;20672;-69
2022/01/19 09:39:25;;;;;;;5.27;3.23;;;9.00;96.40;;;7.59;60.67;101751.44;4961704;28;20741;-69
2022/01/19 09:41:55;;;;;;;5.13;3.00;;;8.20;99.90;;;7.30;62.98;101754.38;4980845;28;20653;-68
2022/01/19 09:44:25;;;;;;;2.40;1.80;;;7.50;99.90;;;6.84;65.24;101747.56;4990424;28;20618;-70
2022/01/19 09:46:52;;;;;;;5.10;4.40;;;7.10;99.90;;;6.41;66.91;101744.91;4981864;28;21092;-66
2022/01/19 09:49:20;;;;;;;3.70;2.40;;;6.70;99.90;;;6.36;66.89;101745.97;4991300;28;20760;-67
2022/01/19 09:51:50;;;;;;;6.80;4.43;;;6.60;99.90;;;6.36;67.75;101744.25;4974064;28;20988;-68
2022/01/19 09:54:27;;;;;;;4.37;2.77;;;6.60;99.90;;;6.51;67.48;101754.06;4974465;28;20705;-69
2022/01/19 09:56:56;;;;;;;3.03;2.07;;;6.60;99.90;;;6.34;68.26;101750.38;4990635;28;20644;-68
2022/01/19 09:59:23;;;;;;;1.67;1.57;;;6.70;99.90;;;6.24;69.63;101752.44;4985929;28;21200;-70
2022/01/19 10:02:07;;;;;;;2.67;2.00;;;6.70;99.90;;;6.39;68.16;101746.72;4977989;28;21126;-69
2022/01/19 10:04:42;;;;;;;2.87;2.13;;;6.70;99.90;;;6.74;69.21;101745.38;5003559;28;20642;-69
2022/01/19 10:07:19;;;;;;;3.70;2.47;;;6.90;99.90;;;6.81;67.83;101741.66;4982828;28;20696;-67
2022/01/19 10:09:52;;;;;;;32.37;15.10;;;7.00;99.90;;;6.75;67.03;101740.13;4979533;28;20754;-68
2022/01/19 10:18:25;;;;;;;5.63;2.97;;;6.90;99.90;;;6.04;70.62;101719.50;4966702;28;21041;-68
2022/01/19 10:21:18;;;;;;;3.08;1.55;;;6.30;99.90;;;6.02;69.79;101720.47;4990432;28;20665;-68
2022/01/19 10:23:48;;;;;;;3.07;2.20;;;6.10;99.90;;;6.06;70.37;101724.63;4989667;28;20272;-69
2022/01/19 10:26:25;;;;;;;1.40;1.27;;;6.20;99.90;;;5.94;71.00;101714.72;4990095;28;20992;-69
2022/01/19 10:29:04;;;;;;;4.43;3.37;;;6.10;99.90;;;6.12;71.26;101720.06;4975110;28;20685;-69
2022/01/19 10:31:33;;;;;;;2.70;1.90;;;6.20;99.90;;;5.99;71.13;101718.81;4989833;28;20628;-68
2022/01/19 10:34:21;;;;;;;11.48;5.80;;;6.10;99.90;;;6.14;71.41;101722.59;4967266;28;20556;-70
2022/01/19 10:36:56;;;;;;;2.97;2.70;;;6.20;99.90;;;6.15;71.26;101711.34;4973333;28;20281;-68
2022/01/19 10:39:46;;;;;;;4.50;3.17;;;6.20;99.90;;;6.12;70.99;101703.66;4955759;28;20206;-69
2022/01/19 10:42:17;;;;;;;1.08;0.93;;;6.20;99.90;;;6.01;71.80;101710.97;4972715;28;20215;-69
2022/01/19 10:44:56;;;;;;;2.43;1.90;;;6.00;99.90;;;6.06;71.69;101704.75;4992016;28;20209;-69
2022/01/19 10:47:53;;;;;;;7.30;4.75;;;6.00;99.90;;;6.02;71.61;101705.75;4990270;28;20779;-69
2022/01/19 10:50:31;;;;;;;7.17;4.90;;;6.00;99.90;;;5.94;71.72;101702.56;4989056;28;20642;-69
2022/01/19 10:53:04;;;;;;;3.35;3.00;;;5.90;99.90;;;5.94;72.09;101707.75;4983054;28;20737;-70
2022/01/19 10:55:41;;;;;;;3.25;2.55;;;5.90;99.90;;;5.92;72.19;101698.38;4979029;28;20223;-69
2022/01/19 10:58:16;;;;;;;10.23;4.55;;;5.90;99.90;;;5.82;72.41;101691.78;4972931;28;20845;-69
2022/01/19 11:00:52;;;;;;;2.78;2.40;;;5.80;99.90;;;5.84;72.46;101682.25;4970813;28;20214;-70
2022/01/19 11:03:23;;;;;;;4.32;3.40;;;5.70;99.90;;;5.81;72.93;101683.19;4954341;28;20719;-69
2022/01/19 11:05:59;;;;;;;6.05;3.28;;;5.70;99.90;;;5.82;72.33;101686.59;4970265;28;20204;-71
2022/01/19 11:08:29;;;;;;;1.90;1.80;;;5.80;99.90;;;5.84;72.50;101688.28;4960222;28;20358;-69
2022/01/19 11:10:58;;;;;;;4.25;3.50;;;5.80;99.90;;;5.90;72.33;101690.63;4973390;28;20484;-69
2022/01/19 11:13:30;;;;;;;8.13;5.20;;;5.90;99.90;;;5.96;72.69;101687.00;4993682;28;20196;-68
2022/01/19 11:16:01;;;;;;;6.90;3.93;;;5.90;99.90;;;6.01;72.29;101679.88;4994321;28;20209;-69
2022/01/19 11:18:30;;;;;;;12.83;6.60;;;5.90;99.90;;;6.07;72.16;101674.47;5013291;23;20767;-61
2022/01/19 11:21:02;;;;;;;8.87;4.63;;;6.00;99.90;;;6.05;72.97;101687.50;5034886;28;20704;-64
2022/01/19 11:23:56;;;;;;;6.17;4.17;;;6.00;99.90;;;6.16;72.08;101676.75;5017214;28;20916;-61
2022/01/19 11:26:30;;;;;;;9.77;5.60;;;6.10;99.90;;;6.21;72.18;101672.25;5032944;28;21059;-63
2022/01/19 11:29:20;;;;;;;7.28;4.95;;;6.10;99.90;;;6.30;72.21;101666.72;5033131;28;21032;-65
2022/01/19 11:31:50;;;;;;;8.23;4.83;;;6.20;99.90;;;6.34;71.81;101670.88;5015897;28;20538;-64
2022/01/19 11:34:40;;;;;;;7.80;5.20;;;6.30;99.90;;;6.41;71.49;101668.91;5005436;28;20625;-64
2022/01/19 11:37:07;;;;;;;8.90;4.93;;;6.30;99.90;;;6.44;71.13;101667.03;5031368;28;20635;-64
2022/01/19 11:39:34;;;;;;;6.20;4.47;;;6.40;99.90;;;6.51;71.40;101665.91;5032476;28;20640;-62
2022/01/19 11:42:05;;;;;;;6.73;5.27;;;6.50;99.90;;;6.50;72.35;101663.34;5033266;28;20596;-65
2022/01/19 11:44:33;;;;;;;6.07;4.10;;;6.50;99.90;;;6.52;72.22;101667.56;5033876;28;20638;-63
2022/01/19 11:47:13;;;;;;;6.90;4.07;;;6.40;99.90;;;6.50;72.22;101663.34;5032517;28;21245;-64
2022/01/19 11:49:51;;;;;;;10.00;3.90;;;6.50;99.90;;;6.56;71.92;101657.94;5026721;28;20653;-62
2022/01/19 11:52:25;;;;;;;8.63;4.90;;;6.50;99.90;;;6.55;71.53;101658.81;5013147;28;20608;-63
2022/01/19 11:55:17;;;;;;;8.70;4.93;;;6.50;99.90;;;6.60;71.96;101660.31;5031129;28;20639;-63
2022/01/19 11:57:48;;;;;;;6.37;4.23;;;6.50;99.90;;;6.52;72.11;101652.00;5031824;28;20636;-64
2022/01/19 12:00:32;;;;;;;6.93;3.60;;;6.50;99.90;;;6.43;72.37;101646.34;5033038;28;20580;-63
2022/01/19 12:03:23;;;;;;;5.30;3.43;;;6.40;99.90;;;6.37;72.06;101642.22;5015577;28;20659;-64
2022/01/19 12:06:33;;;;;;;10.47;4.43;;;6.30;99.90;;;6.34;72.34;101620.78;5032284;28;20636;-65
2022/01/19 12:09:03;;;;;;;8.10;4.80;;;6.20;99.90;;;6.26;73.05;101624.50;5032895;28;21269;-64
2022/01/19 12:11:32;;;;;;;3.67;2.90;;;6.20;99.90;;;6.26;73.02;101608.13;5006604;28;21230;-65
2022/01/19 12:19:35;;;;;;;8.13;4.90;;;6.20;99.90;;;6.22;74.29;101598.75;5033515;28;20237;-63